createdAt,value
2018-12-08T00:02:06.447Z,99128.12
2018-12-08T00:04:29.529Z,99135.02
2018-12-08T00:06:52.669Z,99140.88
2018-12-08T00:09:15.804Z,99135.19
2018-12-08T00:11:38.925Z,99137.78
2018-12-08T00:14:02.066Z,99141.02
2018-12-08T00:16:25.161Z,99140.92
2018-12-08T00:18:48.363Z,99164.17
2018-12-08T00:21:11.465Z,99173.34
2018-12-08T00:23:34.574Z,99185.84
2018-12-08T00:25:57.687Z,99179.02
2018-12-08T00:28:20.798Z,99176.33
2018-12-08T00:30:55.504Z,99198.16
2018-12-08T00:33:18.604Z,99195.08
2018-12-08T00:35:41.741Z,99199.82
2018-12-08T00:38:04.858Z,99197.02
2018-12-08T00:40:27.952Z,99201.16
2018-12-08T00:42:51.067Z,99217.62
2018-12-08T00:45:14.190Z,99214.54
2018-12-08T00:47:37.403Z,99210.05
2018-12-08T00:50:00.514Z,99234.34
2018-12-08T00:52:23.677Z,99215.36
2018-12-08T00:54:46.754Z,99212.42
2018-12-08T00:57:09.896Z,99219.08
2018-12-08T00:59:33.018Z,99224.52
2018-12-08T01:01:56.140Z,99230.35
2018-12-08T01:04:19.284Z,99228.55
2018-12-08T01:06:42.446Z,99233.59
2018-12-08T01:09:07.567Z,99239.86
2018-12-08T01:11:30.680Z,99242.87
2018-12-08T01:13:53.771Z,99237.09
2018-12-08T01:16:16.854Z,99243.16
2018-12-08T01:18:39.971Z,99243.64
2018-12-08T01:21:03.087Z,99256.55
2018-12-08T01:23:26.174Z,99262.79
2018-12-08T01:25:49.307Z,99253.47
2018-12-08T01:28:12.463Z,99245.92
2018-12-08T01:30:35.599Z,99249.21
2018-12-08T01:32:58.712Z,99257.89
2018-12-08T01:35:21.803Z,99258.77
2018-12-08T01:37:44.947Z,99264.06
2018-12-08T01:40:08.114Z,99253.34
2018-12-08T01:42:31.272Z,99269.91
2018-12-08T01:44:54.391Z,99277.20
2018-12-08T01:47:17.499Z,99277.86
2018-12-08T01:49:40.600Z,99274.67
2018-12-08T01:52:03.770Z,99288.47
2018-12-08T01:54:26.930Z,99287.42
2018-12-08T01:56:50.043Z,99290.05
2018-12-08T01:59:13.159Z,99289.30
2018-12-08T02:01:36.269Z,99287.92
2018-12-08T02:03:59.356Z,99286.87
2018-12-08T02:06:22.582Z,99287.24
2018-12-08T02:08:45.680Z,99297.73
2018-12-08T02:11:08.816Z,99286.14
2018-12-08T02:13:31.937Z,99283.10
2018-12-08T02:15:55.037Z,99289.30
2018-12-08T02:18:18.193Z,99300.05
2018-12-08T02:20:41.293Z,99287.23
2018-12-08T02:23:04.413Z,99303.69
2018-12-08T02:25:27.557Z,99286.19
2018-12-08T02:27:50.652Z,99296.11
2018-12-08T02:30:14.029Z,99297.38
2018-12-08T02:32:37.153Z,99303.76
2018-12-08T02:35:00.230Z,99298.11
2018-12-08T02:37:23.428Z,99291.82
2018-12-08T02:39:46.530Z,99292.19
2018-12-08T02:42:09.670Z,99289.09
2018-12-08T02:44:32.798Z,99293.69
2018-12-08T02:46:55.926Z,99293.54
2018-12-08T02:49:19.034Z,99302.70
2018-12-08T02:51:42.112Z,99288.98
2018-12-08T02:54:05.236Z,99284.97
2018-12-08T02:56:28.333Z,99291.03
2018-12-08T02:58:51.458Z,99293.66
2018-12-08T03:01:14.591Z,99293.52
2018-12-08T03:03:37.698Z,99281.80
2018-12-08T03:06:00.826Z,99280.23
2018-12-08T03:08:23.989Z,99283.80
2018-12-08T03:10:47.080Z,99281.58
2018-12-08T03:13:10.172Z,99285.83
2018-12-08T03:15:33.307Z,99285.80
2018-12-08T03:17:56.407Z,99281.88
2018-12-08T03:20:19.578Z,99284.37
2018-12-08T03:22:42.677Z,99283.33
2018-12-08T03:25:05.827Z,99276.55
2018-12-08T03:27:28.956Z,99278.41
2018-12-08T03:29:52.056Z,99274.06
2018-12-08T03:32:15.212Z,99267.00
2018-12-08T03:34:38.353Z,99287.67
2018-12-08T03:37:01.437Z,99288.15
2018-12-08T03:39:24.561Z,99287.52
2018-12-08T03:41:47.670Z,99279.28
2018-12-08T03:44:10.792Z,99279.41
2018-12-08T03:46:33.897Z,99284.96
2018-12-08T03:48:57.029Z,99282.33
2018-12-08T03:51:20.115Z,99281.66
2018-12-08T03:53:43.223Z,99272.20
2018-12-08T03:56:06.331Z,99280.09
2018-12-08T03:58:29.413Z,99297.55
2018-12-08T04:00:52.622Z,99289.97
2018-12-08T04:03:15.716Z,99288.81
2018-12-08T04:05:38.918Z,99289.04
2018-12-08T04:08:02.040Z,99283.58
2018-12-08T04:10:25.170Z,99293.09
2018-12-08T04:12:48.309Z,99279.30
2018-12-08T04:15:11.425Z,99279.35
2018-12-08T04:17:34.544Z,99274.89
2018-12-08T04:19:57.673Z,99281.34
2018-12-08T04:22:20.794Z,99273.02
2018-12-08T04:24:43.953Z,99277.70
2018-12-08T04:27:07.032Z,99267.91
2018-12-08T04:29:30.153Z,99274.94
2018-12-08T04:31:53.250Z,99287.28
2018-12-08T04:34:16.335Z,99276.65
2018-12-08T04:36:39.734Z,99279.23
2018-12-08T04:39:02.999Z,99264.78
2018-12-08T04:41:26.151Z,99267.25
2018-12-08T04:43:49.266Z,99260.80
2018-12-08T04:46:12.369Z,99262.31
2018-12-08T04:48:35.447Z,99261.30
2018-12-08T04:50:58.576Z,99262.75
2018-12-08T04:53:21.669Z,99247.91
2018-12-08T04:55:44.762Z,99262.17
2018-12-08T04:58:07.934Z,99264.67
2018-12-08T05:00:31.132Z,99264.28
2018-12-08T05:02:54.239Z,99267.43
2018-12-08T05:05:17.383Z,99284.23
2018-12-08T05:07:40.479Z,99283.44
2018-12-08T05:10:05.675Z,99268.59
2018-12-08T05:12:28.759Z,99278.64
2018-12-08T05:14:51.921Z,99260.86
2018-12-08T05:17:15.039Z,99264.98
2018-12-08T05:19:38.134Z,99259.34
2018-12-08T05:22:01.250Z,99253.80
2018-12-08T05:24:24.354Z,99255.09
2018-12-08T05:26:47.516Z,99256.38
2018-12-08T05:29:10.613Z,99256.11
2018-12-08T05:31:33.691Z,99259.09
2018-12-08T05:33:56.863Z,99258.77
2018-12-08T05:36:20.040Z,99247.36
2018-12-08T05:38:43.169Z,99243.55
2018-12-08T05:41:06.300Z,99244.33
2018-12-08T05:43:29.377Z,99248.02
2018-12-08T05:45:52.509Z,99241.12
2018-12-08T05:48:15.596Z,99246.59
2018-12-08T05:50:38.723Z,99242.22
2018-12-08T05:53:01.808Z,99248.06
2018-12-08T05:55:24.915Z,99254.81
2018-12-08T05:57:48.066Z,99247.91
2018-12-08T06:00:11.316Z,99250.27
2018-12-08T06:02:34.478Z,99245.86
2018-12-08T06:04:57.742Z,99254.56
2018-12-08T06:07:20.842Z,99239.87
2018-12-08T06:09:43.937Z,99254.53
2018-12-08T06:12:07.067Z,99250.82
2018-12-08T06:14:30.183Z,99238.69
2018-12-08T06:16:53.315Z,99236.93
2018-12-08T06:19:16.408Z,99233.95
2018-12-08T06:21:39.600Z,99231.83
2018-12-08T06:24:02.714Z,99253.25
2018-12-08T06:26:25.802Z,99227.97
2018-12-08T06:28:48.909Z,99229.63
2018-12-08T06:31:12.032Z,99221.03
2018-12-08T06:33:35.223Z,99217.30
2018-12-08T06:35:58.361Z,99216.62
2018-12-08T06:38:21.457Z,99218.50
2018-12-08T06:40:44.562Z,99213.94
2018-12-08T06:43:07.674Z,99219.17
2018-12-08T06:45:30.864Z,99220.70
2018-12-08T06:47:53.945Z,99216.52
2018-12-08T06:50:17.056Z,99213.58
2018-12-08T06:52:40.178Z,99205.58
2018-12-08T06:55:03.343Z,99202.99
2018-12-08T06:57:26.473Z,99200.52
2018-12-08T06:59:49.638Z,99203.36
2018-12-08T07:02:12.770Z,99198.86
2018-12-08T07:04:35.926Z,99204.15
2018-12-08T07:06:59.075Z,99197.77
2018-12-08T07:09:22.245Z,99193.02
2018-12-08T07:11:45.352Z,99199.78
2018-12-08T07:14:08.522Z,99193.84
2018-12-08T07:16:31.710Z,99188.04
2018-12-08T07:18:54.787Z,99194.45
2018-12-08T07:21:17.924Z,99179.58
2018-12-08T07:23:41.035Z,99186.42
2018-12-08T07:26:04.187Z,99207.11
2018-12-08T07:28:27.851Z,99179.36
2018-12-08T07:30:50.970Z,99188.04
2018-12-08T07:33:14.123Z,99179.39
2018-12-08T07:35:37.248Z,99179.80
2018-12-08T07:38:00.347Z,99167.42
2018-12-08T07:40:23.531Z,99174.58
2018-12-08T07:42:46.596Z,99160.03
2018-12-08T07:45:09.743Z,99152.64
2018-12-08T07:47:32.849Z,99157.09
2018-12-08T07:49:56.011Z,99159.71
2018-12-08T07:52:19.106Z,99151.14
2018-12-08T07:54:42.210Z,99151.86
2018-12-08T07:57:05.344Z,99144.53
2018-12-08T07:59:28.813Z,99145.51
2018-12-08T08:01:52.068Z,99130.72
2018-12-08T08:04:15.161Z,99128.19
2018-12-08T08:06:38.301Z,99131.93
2018-12-08T08:09:01.523Z,99124.41
2018-12-08T08:11:24.632Z,99133.53
2018-12-08T08:13:47.734Z,99122.75
2018-12-08T08:16:10.922Z,99113.52
2018-12-08T08:18:34.008Z,99116.60
2018-12-08T08:20:57.101Z,99112.72
2018-12-08T08:23:20.227Z,99101.96
2018-12-08T08:25:43.307Z,99094.11
2018-12-08T08:28:06.458Z,99097.30
2018-12-08T08:30:29.569Z,99098.51
2018-12-08T08:32:52.641Z,99119.34
2018-12-08T08:35:15.791Z,99092.17
2018-12-08T08:37:38.905Z,99114.98
2018-12-08T08:40:02.091Z,99082.75
2018-12-08T08:42:25.218Z,99087.06
2018-12-08T08:44:48.546Z,99090.76
2018-12-08T08:47:11.694Z,99082.77
2018-12-08T08:49:34.826Z,99081.98
2018-12-08T08:51:57.992Z,99091.70
2018-12-08T08:54:21.093Z,99087.60
2018-12-08T08:56:44.217Z,99088.20
2018-12-08T08:59:07.342Z,99081.23
2018-12-08T09:01:30.461Z,99078.30
2018-12-08T09:03:53.846Z,99066.13
2018-12-08T09:06:16.979Z,99067.27
2018-12-08T09:08:40.087Z,99072.53
2018-12-08T09:11:03.241Z,99074.96
2018-12-08T09:13:26.342Z,99057.82
2018-12-08T09:15:49.934Z,99068.06
2018-12-08T09:18:13.185Z,99065.67
2018-12-08T09:20:36.291Z,99067.85
2018-12-08T09:22:59.403Z,99074.38
2018-12-08T09:25:22.568Z,99075.39
2018-12-08T09:27:45.750Z,99067.38
2018-12-08T09:30:08.911Z,99069.86
2018-12-08T09:32:32.043Z,99068.45
2018-12-08T09:34:55.148Z,99067.12
2018-12-08T09:37:18.228Z,99062.84
2018-12-08T09:39:41.350Z,99058.11
2018-12-08T09:42:04.492Z,99074.66
2018-12-08T09:44:27.622Z,99064.95
2018-12-08T09:46:50.711Z,99060.45
2018-12-08T09:49:13.856Z,99048.27
2018-12-08T09:51:37.036Z,99057.86
2018-12-08T09:54:00.168Z,99062.24
2018-12-08T09:56:23.310Z,99051.66
2018-12-08T09:58:46.416Z,99049.31
2018-12-08T10:01:09.530Z,99035.25
2018-12-08T10:03:32.620Z,99052.16
2018-12-08T10:05:55.775Z,99035.68
2018-12-08T10:08:18.856Z,99035.83
2018-12-08T10:10:41.936Z,99030.73
2018-12-08T10:13:05.058Z,99027.52
2018-12-08T10:15:28.175Z,99022.64
2018-12-08T10:17:51.280Z,99021.77
2018-12-08T10:20:14.401Z,99018.03
2018-12-08T10:22:37.513Z,99009.45
2018-12-08T10:25:00.642Z,99001.05
2018-12-08T10:27:23.760Z,99006.94
2018-12-08T10:29:46.877Z,99005.17
2018-12-08T10:32:10.140Z,98991.27
2018-12-08T10:34:33.235Z,98989.97
2018-12-08T10:36:56.367Z,98988.07
2018-12-08T10:39:19.470Z,98993.47
2018-12-08T10:41:42.560Z,98979.15
2018-12-08T10:44:05.725Z,98992.48
2018-12-08T10:46:28.852Z,98972.34
2018-12-08T10:48:51.934Z,98967.39
2018-12-08T10:51:15.047Z,98974.59
2018-12-08T10:53:38.153Z,98953.39
2018-12-08T10:56:01.264Z,98956.45
2018-12-08T10:58:24.368Z,98966.09
2018-12-08T11:00:53.012Z,98957.81
2018-12-08T11:03:31.571Z,98965.59
2018-12-08T11:05:55.108Z,98977.55
2018-12-08T11:08:18.196Z,98961.68
2018-12-08T11:10:41.310Z,98952.41
2018-12-08T11:13:04.406Z,98955.45
2018-12-08T11:15:27.574Z,98956.52
2018-12-08T11:17:50.707Z,98946.00
2018-12-08T11:20:13.829Z,98943.53
2018-12-08T11:22:36.963Z,98957.20
2018-12-08T11:25:00.065Z,98937.88
2018-12-08T11:27:23.159Z,98932.36
2018-12-08T11:29:46.310Z,98924.97
2018-12-08T11:32:10.104Z,98945.86
2018-12-08T11:34:33.203Z,98930.84
2018-12-08T11:36:56.355Z,98956.13
2018-12-08T11:39:19.464Z,98930.20
2018-12-08T11:41:42.760Z,98938.01
2018-12-08T11:44:05.953Z,98949.75
2018-12-08T11:46:29.093Z,98941.05
2018-12-08T11:48:52.256Z,98946.52
2018-12-08T11:51:15.372Z,98937.73
2018-12-08T11:53:38.482Z,98939.19
2018-12-08T11:56:01.619Z,98937.42
2018-12-08T11:58:24.790Z,98940.59
2018-12-08T12:00:48.055Z,98953.16
2018-12-08T12:03:11.163Z,98939.89
2018-12-08T12:05:34.277Z,98951.42
2018-12-08T12:07:57.395Z,98933.52
2018-12-08T12:10:20.507Z,98953.27
2018-12-08T12:12:43.716Z,98931.38
2018-12-08T12:15:07.067Z,98941.28
2018-12-08T12:17:30.214Z,98954.58
2018-12-08T12:19:53.339Z,98953.41
2018-12-08T12:22:16.454Z,98950.06
2018-12-08T12:24:39.599Z,98947.33
2018-12-08T12:27:02.706Z,98937.46
2018-12-08T12:29:25.787Z,98947.98
2018-12-08T12:31:49.049Z,98933.34
2018-12-08T12:34:12.141Z,98936.77
2018-12-08T12:36:35.271Z,98945.02
2018-12-08T12:38:58.373Z,98931.92
2018-12-08T12:41:21.463Z,98949.64
2018-12-08T12:43:44.580Z,98941.63
2018-12-08T12:46:07.716Z,98922.09
2018-12-08T12:48:30.852Z,98919.13
2018-12-08T12:50:53.922Z,98919.34
2018-12-08T12:53:17.046Z,98921.00
2018-12-08T12:55:40.249Z,98922.36
2018-12-08T12:58:03.420Z,98919.31
2018-12-08T13:00:26.530Z,98933.80
2018-12-08T13:02:49.632Z,98915.88
2018-12-08T13:05:12.803Z,98925.70
2018-12-08T13:07:36.053Z,98924.55
2018-12-08T13:09:59.210Z,98932.42
2018-12-08T13:12:22.454Z,98925.91
2018-12-08T13:14:45.535Z,98916.09
2018-12-08T13:17:08.699Z,98920.16
2018-12-08T13:19:31.810Z,98912.52
2018-12-08T13:21:54.922Z,98901.74
2018-12-08T13:24:18.030Z,98906.16
2018-12-08T13:26:41.138Z,98908.36
2018-12-08T13:29:04.274Z,98897.88
2018-12-08T13:31:27.383Z,98897.47
2018-12-08T13:33:51.750Z,98899.69
2018-12-08T13:36:14.847Z,98899.60
2018-12-08T13:38:37.995Z,98895.44
2018-12-08T13:41:01.099Z,98887.92
2018-12-08T13:43:24.289Z,98893.65
2018-12-08T13:45:47.419Z,98885.87
2018-12-08T13:48:11.476Z,98887.81
2018-12-08T13:50:35.162Z,98880.17
2018-12-08T13:52:58.279Z,98876.23
2018-12-08T13:55:21.395Z,98881.63
2018-12-08T13:57:44.492Z,98876.81
2018-12-08T14:00:07.727Z,98893.35
2018-12-08T14:02:30.942Z,98888.98
2018-12-08T14:04:54.047Z,98879.09
2018-12-08T14:07:17.145Z,98873.94
2018-12-08T14:09:40.266Z,98873.40
2018-12-08T14:12:03.388Z,98884.11
2018-12-08T14:14:26.512Z,98883.13
2018-12-08T14:16:49.603Z,98875.93
2018-12-08T14:19:12.858Z,98880.87
2018-12-08T14:21:35.961Z,98880.77
2018-12-08T14:23:59.101Z,98894.19
2018-12-08T14:26:22.246Z,98884.61
2018-12-08T14:28:45.491Z,98882.24
2018-12-08T14:31:08.690Z,98889.28
2018-12-08T14:33:31.801Z,98881.97
2018-12-08T14:35:54.875Z,98880.52
2018-12-08T14:38:18.013Z,98867.97
2018-12-08T14:40:41.161Z,98891.42
2018-12-08T14:43:04.264Z,98886.69
2018-12-08T14:45:27.442Z,98879.63
2018-12-08T14:47:50.643Z,98898.51
2018-12-08T14:50:13.782Z,98889.46
2018-12-08T14:52:36.942Z,98888.85
2018-12-08T14:55:00.091Z,98892.66
2018-12-08T14:57:23.317Z,98917.27
2018-12-08T14:59:46.467Z,98884.07
2018-12-08T15:02:09.663Z,98885.97
2018-12-08T15:04:32.776Z,98887.36
2018-12-08T15:06:55.908Z,98884.89
2018-12-08T15:09:19.101Z,98886.88
2018-12-08T15:11:42.217Z,98898.41
2018-12-08T15:14:05.316Z,98900.27
2018-12-08T15:16:28.488Z,98885.97
2018-12-08T15:18:51.589Z,98886.09
2018-12-08T15:21:14.790Z,98887.48
2018-12-08T15:23:38.321Z,98884.55
2018-12-08T15:26:01.823Z,98883.77
2018-12-08T15:28:24.957Z,98877.22
2018-12-08T15:30:48.495Z,98880.02
2018-12-08T15:33:11.679Z,98895.35
2018-12-08T15:35:34.818Z,98887.06
2018-12-08T15:37:58.158Z,98899.80
2018-12-08T15:40:21.330Z,98887.06
2018-12-08T15:42:44.468Z,98885.84
2018-12-08T15:45:09.375Z,98892.45
2018-12-08T15:47:32.586Z,98877.55
2018-12-08T15:49:55.750Z,98887.37
2018-12-08T15:52:19.014Z,98888.00
2018-12-08T15:54:42.117Z,98896.30
2018-12-08T15:57:05.251Z,98912.58
2018-12-08T15:59:28.395Z,98894.78
2018-12-08T16:01:51.503Z,98891.38
2018-12-08T16:04:14.715Z,98884.63
2018-12-08T16:06:37.807Z,98867.74
2018-12-08T16:09:00.919Z,98894.30
2018-12-08T16:11:24.064Z,98886.48
2018-12-08T16:13:47.153Z,98900.44
2018-12-08T16:16:10.395Z,98888.94
2018-12-08T16:18:33.546Z,98889.25
2018-12-08T16:20:56.678Z,98899.69
2018-12-08T16:23:19.805Z,98910.59
2018-12-08T16:25:42.917Z,98897.07
2018-12-08T16:28:06.070Z,98885.88
2018-12-08T16:30:29.183Z,98897.68
2018-12-08T16:32:52.317Z,98889.10
2018-12-08T16:35:15.523Z,98892.01
2018-12-08T16:37:38.736Z,98903.81
2018-12-08T16:40:01.900Z,98897.54
2018-12-08T16:42:25.019Z,98900.61
2018-12-08T16:44:48.177Z,98907.99
2018-12-08T16:47:11.358Z,98895.38
2018-12-08T16:49:34.462Z,98894.88
2018-12-08T16:51:57.579Z,98886.17
2018-12-08T16:54:20.752Z,98888.91
2018-12-08T16:56:43.929Z,98880.32
2018-12-08T16:59:07.062Z,98890.80
2018-12-08T17:01:30.244Z,98880.17
2018-12-08T17:03:53.316Z,98884.16
2018-12-08T17:06:16.502Z,98910.42
2018-12-08T17:08:39.638Z,98889.08
2018-12-08T17:11:02.778Z,98904.72
2018-12-08T17:13:25.886Z,98881.09
2018-12-08T17:15:49.035Z,98885.84
2018-12-08T17:18:12.187Z,98880.78
2018-12-08T17:20:35.322Z,98878.35
2018-12-08T17:22:58.521Z,98876.34
2018-12-08T17:25:21.630Z,98875.42
2018-12-08T17:27:45.073Z,98875.72
2018-12-08T17:30:08.462Z,98872.97
2018-12-08T17:32:31.604Z,98877.41
2018-12-08T17:34:54.751Z,98886.48
2018-12-08T17:37:17.844Z,98873.11
2018-12-08T17:39:40.974Z,98875.42
2018-12-08T17:42:04.117Z,98897.20
2018-12-08T17:44:27.273Z,98876.03
2018-12-08T17:46:50.391Z,98866.98
2018-12-08T17:49:14.597Z,98856.22
2018-12-08T17:51:37.674Z,98857.61
2018-12-08T17:54:01.943Z,98855.13
2018-12-08T17:56:25.057Z,98850.08
2018-12-08T17:58:48.160Z,98854.52
2018-12-08T18:01:11.393Z,98841.63
2018-12-08T18:03:34.578Z,98853.45
2018-12-08T18:05:57.676Z,98858.98
2018-12-08T18:08:20.782Z,98845.77
2018-12-08T18:10:43.904Z,98840.56
2018-12-08T18:13:07.102Z,98831.80
2018-12-08T18:15:30.201Z,98843.31
2018-12-08T18:17:53.311Z,98826.88
2018-12-08T18:20:16.495Z,98829.64
2018-12-08T18:22:39.771Z,98829.51
2018-12-08T18:25:03.272Z,98817.53
2018-12-08T18:27:26.375Z,98825.05
2018-12-08T18:29:49.488Z,98852.84
2018-12-08T18:32:12.636Z,98825.64
2018-12-08T18:34:35.764Z,98813.82
2018-12-08T18:36:58.877Z,98833.02
2018-12-08T18:39:22.022Z,98816.59
2018-12-08T18:41:45.145Z,98823.95
2018-12-08T18:44:08.278Z,98796.28
2018-12-08T18:46:31.515Z,98789.37
2018-12-08T18:48:54.681Z,98798.75
2018-12-08T18:51:17.785Z,98784.62
2018-12-08T18:53:40.898Z,98786.80
2018-12-08T18:56:04.081Z,98760.67
2018-12-08T18:58:27.215Z,98759.58
2018-12-08T19:00:50.323Z,98754.62
2018-12-08T19:03:13.474Z,98755.00
2018-12-08T19:05:36.615Z,98767.13
2018-12-08T19:07:59.766Z,98754.38
2018-12-08T19:10:22.930Z,98748.86
2018-12-08T19:12:46.044Z,98751.96
2018-12-08T19:15:09.243Z,98741.20
2018-12-08T19:17:32.476Z,98753.47
2018-12-08T19:19:55.601Z,98729.23
2018-12-08T19:22:18.758Z,98733.51
2018-12-08T19:24:41.888Z,98730.59
2018-12-08T19:27:05.041Z,98734.57
2018-12-08T19:29:28.183Z,98730.13
2018-12-08T19:31:51.292Z,98729.53
2018-12-08T19:34:14.465Z,98734.14
2018-12-08T19:36:37.591Z,98743.37
2018-12-08T19:39:00.747Z,98729.55
2018-12-08T19:41:23.948Z,98735.24
2018-12-08T19:43:47.124Z,98731.67
2018-12-08T19:46:10.277Z,98724.19
2018-12-08T19:48:33.406Z,98716.95
2018-12-08T19:50:56.533Z,98725.11
2018-12-08T19:53:19.645Z,98726.48
2018-12-08T19:55:42.749Z,98707.30
2018-12-08T19:58:05.909Z,98713.29
2018-12-08T20:00:29.053Z,98704.83
2018-12-08T20:02:52.207Z,98697.00
2018-12-08T20:05:15.339Z,98706.34
2018-12-08T20:07:38.487Z,98698.81
2018-12-08T20:10:01.668Z,98694.23
2018-12-08T20:12:24.810Z,98683.31
2018-12-08T20:14:47.992Z,98667.81
2018-12-08T20:17:11.122Z,98661.66
2018-12-08T20:19:34.256Z,98670.55
2018-12-08T20:21:57.367Z,98646.43
2018-12-08T20:24:20.472Z,98638.63
2018-12-08T20:26:43.638Z,98634.02
2018-12-08T20:29:06.758Z,98637.09
2018-12-08T20:31:29.895Z,98624.54
2018-12-08T20:33:52.989Z,98617.71
2018-12-08T20:36:16.121Z,98600.44
2018-12-08T20:38:39.252Z,98594.91
2018-12-08T20:41:02.407Z,98592.73
2018-12-08T20:43:25.528Z,98583.61
2018-12-08T20:45:48.646Z,98577.63
2018-12-08T20:48:11.771Z,98568.98
2018-12-08T20:50:34.940Z,98560.01
2018-12-08T20:52:58.054Z,98554.16
2018-12-08T20:55:23.126Z,98539.27
2018-12-08T20:57:46.239Z,98536.66
2018-12-08T21:00:09.420Z,98538.33
2018-12-08T21:02:32.584Z,98528.84
2018-12-08T21:04:55.682Z,98520.25
2018-12-08T21:07:18.845Z,98522.19
2018-12-08T21:09:41.992Z,98511.98
2018-12-08T21:12:06.684Z,98510.19
2018-12-08T21:14:30.136Z,98503.78
2018-12-08T21:16:53.249Z,98499.70
2018-12-08T21:19:16.345Z,98491.42
2018-12-08T21:21:39.479Z,98476.96
2018-12-08T21:24:02.615Z,98481.08
2018-12-08T21:26:25.977Z,98473.88
2018-12-08T21:28:49.110Z,98472.71
2018-12-08T21:31:12.252Z,98467.13
2018-12-08T21:33:36.249Z,98449.94
2018-12-08T21:35:59.354Z,98449.20
2018-12-08T21:38:22.486Z,98440.86
2018-12-08T21:40:45.601Z,98427.44
2018-12-08T21:43:08.746Z,98420.34
2018-12-08T21:45:31.903Z,98411.16
2018-12-08T21:47:55.042Z,98412.50
2018-12-08T21:50:18.326Z,98395.80
2018-12-08T21:52:41.439Z,98387.13
2018-12-08T21:55:04.595Z,98383.04
2018-12-08T21:57:27.739Z,98369.26
2018-12-08T21:59:50.850Z,98355.88
2018-12-08T22:02:13.995Z,98341.54
2018-12-08T22:04:37.135Z,98341.83
2018-12-08T22:07:00.239Z,98325.57
2018-12-08T22:09:23.338Z,98312.33
2018-12-08T22:11:46.470Z,98300.19
2018-12-08T22:14:09.591Z,98289.74
2018-12-08T22:16:32.713Z,98294.66
2018-12-08T22:18:55.853Z,98283.86
2018-12-08T22:21:19.034Z,98273.66
2018-12-08T22:23:42.248Z,98254.35
2018-12-08T22:26:05.422Z,98255.16
2018-12-08T22:28:28.536Z,98244.03
2018-12-08T22:30:51.677Z,98249.94
2018-12-08T22:33:14.791Z,98229.98
2018-12-08T22:35:38.020Z,98230.67
2018-12-08T22:38:01.123Z,98217.83
2018-12-08T22:40:24.249Z,98204.59
2018-12-08T22:42:47.397Z,98197.30
2018-12-08T22:45:10.502Z,98201.87
2018-12-08T22:47:33.654Z,98206.02
2018-12-08T22:49:56.740Z,98196.60
2018-12-08T22:52:19.888Z,98186.57
2018-12-08T22:54:43.069Z,98181.28
2018-12-08T22:57:06.175Z,98176.38
2018-12-08T22:59:29.319Z,98170.89
2018-12-08T23:01:52.492Z,98157.88
2018-12-08T23:04:15.679Z,98165.08
2018-12-08T23:06:38.842Z,98144.37
2018-12-08T23:09:01.936Z,98143.18
2018-12-08T23:11:25.035Z,98128.58
2018-12-08T23:13:48.184Z,98129.42
2018-12-08T23:16:11.390Z,98127.98
2018-12-08T23:18:34.490Z,98107.59
2018-12-08T23:20:57.614Z,98097.67
2018-12-08T23:23:20.760Z,98090.98
2018-12-08T23:25:43.874Z,98096.75
2018-12-08T23:28:07.050Z,98085.73
2018-12-08T23:30:30.327Z,98082.14
2018-12-08T23:32:53.445Z,98071.07
2018-12-08T23:35:16.624Z,98061.59
2018-12-08T23:37:40.008Z,98067.89
2018-12-08T23:40:03.488Z,98060.36
2018-12-08T23:42:26.618Z,98047.66
2018-12-08T23:44:49.757Z,98045.80
2018-12-08T23:47:12.913Z,98035.95
2018-12-08T23:49:36.069Z,98042.19
2018-12-08T23:51:59.185Z,98033.78
2018-12-08T23:54:22.282Z,98030.11
2018-12-08T23:56:45.403Z,98013.56
2018-12-08T23:59:08.597Z,98015.84
